Airfield :







YOU CAN JOIN US ON...

 
LOGIN :

Register | Disclaimer

   EN    FR    IT 

 









Legend :    VFR   Marginal VFR   IFR   Intensive IFR   Very Intensive IFR
Visi :
Ceiling :
>= 8 km
>= 3000ft
5 to 8 km
1000 to 3000 ft
1500m to 5 km
500 to 1000 ft
800 to 1500m
200 to 500 ft
< 800m
< 200 ft
Symbols :   Thunderstorms  Fog  Heavy snow  Heavy precipitations  Wind > 20 kt






- Airport Elevation : 171 ft
- IATA code : KEF


BIKF - Keflavik International

CURRENT METAR :
  • 231900Z 02021G31KT 9999 VCSH BKN034TCU M03/M09 Q1018

EXPIRED METARs :
  • 231830Z 02023G36KT 9999 BKN031TCU M02/M09 Q1019
  • 231800Z 02023G33KT 9999 BKN033TCU M02/M08 Q1018
  • 231730Z 02022G33KT 9999 BKN033TCU M02/M10 Q1018
  • 231700Z 02021G31KT 9999 BKN033TCU M02/M10 Q1018
  • 231630Z 03023G34KT 9999 VCSH BKN026TCU M02/M10 Q1018

TAF TAF BIKF
Valid from the 23 at 18:00 until the 24 at 18:00 UTC


231604Z 2318/2418 03020G30KT 9999 BKN036 TX01/2415Z TNM02/2318Z
BECMG 2400/2402 36030G43KT



MET'MAP, your aeronautical weather chart ! - Copyright ORBIFLY December 2007 - Disclaimer

ORBIFLY MET'MAP TEAM :

Programming & Development : Alexandra Zaïnal
Concept & Development : Baudouin d'Aumeries
Co-Development & Prog : Marc-Olivier Méhu
Technical & hardware support : Manuel Goepfert

Contact : metmap@orbifly.com




SOURCES & CREDITS :

   NOAA